Time;durP1;ratioP1;P1;durP2;ratioP2;P2;SDS_P1;SDS_P2;PMS_P1;PMS_P2;Temp;Humidity;BMP_temperature;BMP_pressure;BME280_temperature;BME280_humidity;BME280_pressure;Samples;Min_cycle;Max_cycle;Signal;HPM_P1;HPM_P2
2023/05/06 00:00:33;;;;;;;3.90;3.50;;;13.10;99.90;;;;;;2034480;29;20216;-81
2023/05/06 00:01:34;;;;;;;4.13;3.43;;;12.40;99.90;;;;;;2027637;29;20218;-80
2023/05/06 00:02:35;;;;;;;6.37;3.83;;;12.90;99.90;;;;;;2025397;29;20222;-82
2023/05/06 00:03:35;;;;;;;4.43;3.47;;;12.30;99.90;;;;;;2012218;29;20261;-80
2023/05/06 00:04:37;;;;;;;4.60;3.87;;;13.00;99.90;;;;;;2012718;29;20266;-81
2023/05/06 00:05:37;;;;;;;4.97;3.50;;;12.30;99.90;;;;;;2023527;29;20376;-81
2023/05/06 00:06:38;;;;;;;5.17;3.50;;;12.30;99.90;;;;;;2024515;29;20293;-81
2023/05/06 00:07:39;;;;;;;4.73;3.50;;;12.40;99.90;;;;;;2017308;29;20245;-82
2023/05/06 00:08:39;;;;;;;5.80;3.37;;;12.30;99.90;;;;;;2009512;29;20262;-82
2023/05/06 00:09:40;;;;;;;3.63;3.30;;;12.40;99.90;;;;;;2012934;29;20231;-82
2023/05/06 00:10:41;;;;;;;4.37;3.60;;;12.40;99.90;;;;;;2006556;29;20234;-82
2023/05/06 00:11:41;;;;;;;4.07;3.63;;;13.60;99.90;;;;;;2014525;29;20238;-81
2023/05/06 00:12:42;;;;;;;5.50;4.13;;;12.50;99.90;;;;;;2014283;29;20298;-81
2023/05/06 00:13:43;;;;;;;6.63;4.27;;;13.30;99.90;;;;;;2025170;29;20308;-83
2023/05/06 00:14:43;;;;;;;5.50;3.83;;;12.50;99.90;;;;;;2021954;29;20235;-81
2023/05/06 00:15:44;;;;;;;5.33;3.70;;;12.50;99.90;;;;;;2021934;29;20734;-82
2023/05/06 00:16:45;;;;;;;6.87;4.00;;;12.60;99.90;;;;;;2013450;29;20325;-83
2023/05/06 00:17:45;;;;;;;5.53;3.67;;;12.60;99.90;;;;;;2010697;29;20263;-82
2023/05/06 00:18:46;;;;;;;5.07;4.23;;;12.50;99.90;;;;;;2010734;29;20238;-81
2023/05/06 00:19:47;;;;;;;4.17;3.60;;;12.50;99.90;;;;;;2014265;29;20260;-82
2023/05/06 00:20:48;;;;;;;6.80;4.00;;;12.40;99.90;;;;;;2015494;29;20330;-83
2023/05/06 00:21:48;;;;;;;6.78;4.05;;;12.40;99.90;;;;;;2007540;29;20238;-82
2023/05/06 00:22:49;;;;;;;6.57;4.20;;;12.30;99.90;;;;;;2024357;29;20943;-83
2023/05/06 00:23:50;;;;;;;4.80;3.47;;;12.20;99.90;;;;;;2016819;29;20233;-80
2023/05/06 00:24:50;;;;;;;4.33;3.80;;;13.10;99.90;;;;;;2017451;29;20240;-82
2023/05/06 00:25:53;;;;;;;6.50;3.60;;;12.80;99.90;;;;;;2013967;29;20238;-82
2023/05/06 00:26:54;;;;;;;5.47;4.05;;;12.10;99.90;;;;;;2013774;29;20290;-82
2023/05/06 00:27:55;;;;;;;7.37;4.60;;;12.10;99.90;;;;;;2006685;29;20264;-82
2023/05/06 00:28:55;;;;;;;6.57;4.03;;;12.60;99.90;;;;;;2013758;29;20231;-83
2023/05/06 00:29:57;;;;;;;5.73;3.70;;;12.10;99.90;;;;;;2025250;29;20236;-82
2023/05/06 00:30:58;;;;;;;5.53;4.13;;;12.90;99.90;;;;;;2017251;29;20301;-83
2023/05/06 00:31:58;;;;;;;6.00;3.73;;;12.20;99.90;;;;;;2013185;29;20231;-82
2023/05/06 00:32:59;;;;;;;6.90;4.23;;;12.30;99.90;;;;;;2007606;29;20266;-84
2023/05/06 00:34:00;;;;;;;3.43;3.13;;;12.30;99.90;;;;;;2007014;29;20236;-83
2023/05/06 00:35:01;;;;;;;4.30;3.60;;;13.50;99.90;;;;;;2014598;29;20707;-83
2023/05/06 00:36:01;;;;;;;5.40;3.58;;;12.40;99.90;;;;;;2010318;29;20215;-83
2023/05/06 00:37:02;;;;;;;4.73;3.70;;;12.50;99.90;;;;;;2009688;29;20309;-81
2023/05/06 00:38:11;;;;;;;5.17;3.30;;;12.50;99.90;;;;;;2009371;29;20190;-83
2023/05/06 00:39:12;;;;;;;4.70;3.53;;;12.90;99.90;;;;;;2007177;29;20198;-82
2023/05/06 00:40:13;;;;;;;6.93;4.03;;;12.50;99.90;;;;;;2006557;29;20203;-83
2023/05/06 00:41:14;;;;;;;3.57;3.27;;;12.50;99.90;;;;;;2014111;29;20194;-84
2023/05/06 00:42:14;;;;;;;6.73;4.17;;;12.50;99.90;;;;;;2013647;29;20899;-82
2023/05/06 00:43:15;;;;;;;4.07;3.67;;;13.90;99.90;;;;;;2018356;29;20277;-83
2023/05/06 00:44:16;;;;;;;5.00;3.70;;;12.50;99.90;;;;;;2014208;29;20185;-83
2023/05/06 00:45:16;;;;;;;5.40;3.70;;;12.50;99.90;;;;;;2022268;29;21043;-81
2023/05/06 00:46:17;;;;;;;4.40;3.73;;;12.50;99.90;;;;;;2025917;29;20669;-82
2023/05/06 00:47:21;;;;;;;3.93;3.53;;;12.50;99.90;;;;;;2011273;29;20199;-82
2023/05/06 00:48:22;;;;;;;5.50;4.00;;;13.30;99.90;;;;;;2014545;29;20297;-83
2023/05/06 00:49:23;;;;;;;5.13;4.03;;;12.50;99.90;;;;;;2013714;29;20254;-82
2023/05/06 00:50:27;;;;;;;4.20;3.30;;;12.50;99.90;;;;;;2021826;29;20230;-83
2023/05/06 00:51:28;;;;;;;3.90;3.50;;;12.50;99.90;;;;;;2018902;29;20230;-82
2023/05/06 00:52:29;;;;;;;4.85;3.42;;;12.50;99.90;;;;;;2025430;29;20249;-82
2023/05/06 00:53:29;;;;;;;4.53;3.47;;;12.60;99.90;;;;;;2023064;29;20330;-82
2023/05/06 00:54:30;;;;;;;4.77;3.40;;;12.80;99.90;;;;;;2013265;29;20251;-81
2023/05/06 00:55:31;;;;;;;3.88;3.47;;;12.40;99.90;;;;;;2013270;29;20710;-81
2023/05/06 00:56:32;;;;;;;4.83;3.30;;;12.30;99.90;;;;;;2013034;29;20329;-82
2023/05/06 00:57:33;;;;;;;6.03;3.83;;;12.30;99.90;;;;;;2012760;29;20277;-81
2023/05/06 00:58:35;;;;;;;5.30;4.13;;;12.20;99.90;;;;;;2020521;29;20226;-79
2023/05/06 00:59:35;;;;;;;5.68;3.90;;;13.40;99.90;;;;;;2024681;29;20282;-80
2023/05/06 01:00:36;;;;;;;7.03;4.30;;;12.10;99.90;;;;;;2010460;29;20215;-80
2023/05/06 01:01:37;;;;;;;5.10;4.00;;;12.10;99.90;;;;;;2025486;29;20266;-79
2023/05/06 01:02:38;;;;;;;5.03;3.30;;;12.10;99.90;;;;;;2022735;29;20278;-80
2023/05/06 01:03:38;;;;;;;4.37;3.67;;;12.20;99.90;;;;;;2025700;29;20269;-79
2023/05/06 01:04:40;;;;;;;5.43;4.03;;;12.40;99.90;;;;;;2018444;29;20259;-80
2023/05/06 01:06:24;;;;;;;4.40;3.90;;;12.20;99.90;;;;;;2033829;29;20229;-80
2023/05/06 01:07:40;;;;;;;8.70;4.13;;;12.20;99.90;;;;;;2034022;29;20265;-80
2023/05/06 01:09:04;;;;;;;4.43;3.85;;;12.10;99.90;;;;;;2030578;29;20249;-80
2023/05/06 01:10:57;;;;;;;3.88;3.40;;;12.10;99.90;;;;;;2024292;29;20222;-80
2023/05/06 01:12:06;;;;;;;5.38;3.38;;;12.00;99.90;;;;;;2006929;29;20235;-79
2023/05/06 01:13:17;;;;;;;4.43;3.70;;;11.80;99.90;;;;;;1998013;29;20248;-80
2023/05/06 01:14:28;;;;;;;7.15;4.25;;;11.70;99.90;;;;;;2001860;29;20348;-80
2023/05/06 01:15:45;;;;;;;6.18;4.18;;;11.60;99.90;;;;;;2002603;29;20239;-80
2023/05/06 01:16:52;;;;;;;4.47;3.67;;;11.60;99.90;;;;;;1999668;29;20232;-82
2023/05/06 01:17:56;;;;;;;5.47;3.85;;;11.50;99.90;;;;;;2015017;29;20222;-80
2023/05/06 01:18:59;;;;;;;7.15;4.57;;;11.50;99.90;;;;;;2019249;29;20235;-80
2023/05/06 01:20:01;;;;;;;8.07;4.63;;;11.40;99.90;;;;;;2026106;29;20226;-80
2023/05/06 01:21:04;;;;;;;7.40;4.53;;;11.30;99.90;;;;;;2024818;29;20217;-80
2023/05/06 01:22:06;;;;;;;5.28;4.18;;;12.00;99.90;;;;;;2018333;29;20203;-80
2023/05/06 01:23:11;;;;;;;5.70;4.72;;;11.20;99.90;;;;;;2018224;29;20186;-80
2023/05/06 01:24:12;;;;;;;6.20;5.03;;;11.20;99.90;;;;;;2023055;29;20186;-80
2023/05/06 01:25:21;;;;;;;4.77;3.90;;;11.20;99.90;;;;;;2029166;29;20198;-80
2023/05/06 01:26:23;;;;;;;8.05;4.57;;;11.20;99.90;;;;;;2029354;29;20277;-81
2023/05/06 01:27:25;;;;;;;5.28;4.07;;;11.10;99.90;;;;;;2025338;29;20242;-80
2023/05/06 01:28:25;;;;;;;4.63;3.65;;;11.20;99.90;;;;;;2033953;29;20223;-80
2023/05/06 01:29:26;;;;;;;9.23;5.57;;;11.20;99.90;;;;;;2033603;29;20256;-80
2023/05/06 01:30:50;;;;;;;4.80;3.97;;;11.10;99.90;;;;;;2021929;29;20275;-80
2023/05/06 01:31:53;;;;;;;8.07;4.75;;;11.10;99.90;;;;;;2031337;29;20284;-79
2023/05/06 01:33:12;;;;;;;4.90;4.10;;;11.00;99.90;;;;;;2029724;29;20233;-79
2023/05/06 01:34:27;;;;;;;6.30;4.30;;;11.00;99.90;;;;;;2023558;29;20210;-79
2023/05/06 01:36:06;;;;;;;5.68;3.95;;;10.90;99.90;;;;;;2017574;29;20230;-81
2023/05/06 01:37:22;;;;;;;5.65;4.07;;;10.80;99.90;;;;;;2004815;29;20258;-84
2023/05/06 01:38:30;;;;;;;6.07;3.92;;;10.70;99.90;;;;;;2008677;29;20598;-82
2023/05/06 01:39:32;;;;;;;8.95;4.43;;;10.70;99.90;;;;;;2012546;29;20239;-81
2023/05/06 01:40:34;;;;;;;8.38;5.18;;;10.80;99.90;;;;;;2025745;29;20729;-82
2023/05/06 01:41:38;;;;;;;11.98;5.07;;;10.60;99.90;;;;;;2018768;29;20245;-81
2023/05/06 01:42:39;;;;;;;10.32;4.95;;;10.60;99.90;;;;;;2026985;29;20233;-82
2023/05/06 01:43:44;;;;;;;6.20;4.05;;;10.50;99.90;;;;;;2026407;29;20316;-83
2023/05/06 01:44:46;;;;;;;7.65;4.65;;;10.50;99.90;;;;;;2025774;29;20317;-82
2023/05/06 01:45:52;;;;;;;7.22;4.95;;;10.50;99.90;;;;;;2018283;29;20698;-83
2023/05/06 01:46:54;;;;;;;7.47;4.88;;;10.60;99.90;;;;;;2022936;29;20234;-83
2023/05/06 01:47:55;;;;;;;6.65;4.38;;;10.50;99.90;;;;;;2025971;29;20229;-81
2023/05/06 01:49:00;;;;;;;5.03;4.00;;;10.50;99.90;;;;;;2009986;29;20223;-82
2023/05/06 01:50:01;;;;;;;7.82;5.05;;;10.50;99.90;;;;;;2014268;29;20752;-81
2023/05/06 01:51:02;;;;;;;7.70;4.80;;;10.50;99.90;;;;;;2014262;29;20193;-82
2023/05/06 01:52:03;;;;;;;6.55;4.47;;;10.50;99.90;;;;;;2010229;29;20203;-83
2023/05/06 01:53:03;;;;;;;4.47;3.83;;;10.50;99.90;;;;;;2021074;29;20194;-83
2023/05/06 01:54:04;;;;;;;7.47;5.00;;;10.50;99.90;;;;;;2009623;29;20198;-82
2023/05/06 01:55:06;;;;;;;4.70;3.67;;;10.60;99.90;;;;;;2010070;29;20195;-82
2023/05/06 01:56:06;;;;;;;6.53;4.57;;;10.60;99.90;;;;;;1999081;29;20223;-83
2023/05/06 01:57:07;;;;;;;7.73;4.50;;;10.60;99.90;;;;;;2016090;29;20191;-81
2023/05/06 01:58:08;;;;;;;4.50;3.80;;;10.60;99.90;;;;;;2026435;29;20189;-80
2023/05/06 01:59:09;;;;;;;4.93;4.00;;;10.60;99.90;;;;;;2019092;29;20233;-80
2023/05/06 02:00:10;;;;;;;5.73;3.67;;;10.50;99.90;;;;;;2017586;29;20218;-81
2023/05/06 02:01:11;;;;;;;4.65;3.50;;;10.50;99.90;;;;;;2027023;29;20204;-81
2023/05/06 02:02:11;;;;;;;4.70;3.73;;;10.50;99.90;;;;;;2033817;29;20681;-82
2023/05/06 02:03:12;;;;;;;6.47;4.20;;;10.50;99.90;;;;;;2026629;29;20209;-82
2023/05/06 02:04:13;;;;;;;5.97;4.57;;;10.40;99.90;;;;;;2017891;29;20214;-82
2023/05/06 02:05:14;;;;;;;6.55;3.85;;;10.40;99.90;;;;;;2017188;29;20197;-82
2023/05/06 02:06:15;;;;;;;4.63;3.93;;;11.00;99.90;;;;;;2018004;29;20328;-81
2023/05/06 02:07:16;;;;;;;8.30;4.37;;;10.40;99.90;;;;;;2025733;29;20221;-81
2023/05/06 02:08:17;;;;;;;7.28;4.00;;;10.40;99.90;;;;;;2018444;29;20497;-81
2023/05/06 02:09:17;;;;;;;5.70;3.73;;;10.40;99.90;;;;;;2010642;29;20191;-83
2023/05/06 02:10:18;;;;;;;4.30;3.70;;;10.40;99.90;;;;;;2011325;29;20175;-83
2023/05/06 02:11:19;;;;;;;3.90;3.40;;;10.40;99.90;;;;;;2014795;29;20202;-82
2023/05/06 02:12:20;;;;;;;4.23;3.50;;;10.40;99.90;;;;;;2026332;29;20695;-83
2023/05/06 02:13:20;;;;;;;6.47;4.43;;;10.40;99.90;;;;;;2025675;29;20918;-83
2023/05/06 02:14:21;;;;;;;4.40;3.90;;;10.70;99.90;;;;;;2033599;29;20237;-82
2023/05/06 02:15:22;;;;;;;4.27;3.80;;;11.50;99.90;;;;;;2026021;29;20233;-83
2023/05/06 02:16:26;;;;;;;6.07;3.90;;;10.40;99.90;;;;;;2025585;29;20263;-83
2023/05/06 02:17:27;;;;;;;6.75;4.40;;;10.30;99.90;;;;;;2014357;29;20278;-83
2023/05/06 02:18:28;;;;;;;5.57;4.20;;;10.30;99.90;;;;;;2014426;29;20256;-83
2023/05/06 02:19:28;;;;;;;5.10;4.00;;;10.30;99.90;;;;;;2021327;29;20237;-82
2023/05/06 02:20:29;;;;;;;5.30;3.70;;;10.70;99.90;;;;;;2007698;29;20235;-81
2023/05/06 02:21:30;;;;;;;6.80;4.33;;;10.30;99.90;;;;;;2009952;29;20639;-83
2023/05/06 02:22:31;;;;;;;5.55;3.47;;;11.40;99.90;;;;;;2010601;29;20234;-83
2023/05/06 02:23:32;;;;;;;5.37;4.30;;;10.40;99.90;;;;;;2010004;29;20267;-83
2023/05/06 02:24:33;;;;;;;4.97;4.47;;;10.40;99.90;;;;;;2014062;29;20258;-83
2023/05/06 02:25:33;;;;;;;4.97;4.17;;;10.30;99.90;;;;;;2014421;29;20282;-83
2023/05/06 02:26:34;;;;;;;5.83;4.33;;;10.30;99.90;;;;;;2021006;29;20246;-82
2023/05/06 02:27:35;;;;;;;8.53;4.70;;;10.50;99.90;;;;;;2014850;29;20238;-83
2023/05/06 02:28:35;;;;;;;7.80;5.50;;;10.30;99.90;;;;;;2018290;29;20450;-83
2023/05/06 02:29:36;;;;;;;5.87;3.80;;;10.40;99.90;;;;;;2024978;29;20243;-83
2023/05/06 02:30:37;;;;;;;8.60;4.40;;;10.40;99.90;;;;;;2021939;29;20254;-83
2023/05/06 02:31:37;;;;;;;7.77;4.93;;;10.40;99.90;;;;;;2011168;29;20743;-83
2023/05/06 02:32:38;;;;;;;5.90;4.10;;;10.40;99.90;;;;;;2017997;29;20316;-83
2023/05/06 02:33:39;;;;;;;13.10;4.83;;;10.40;99.90;;;;;;2009803;29;20906;-82
2023/05/06 02:34:39;;;;;;;14.77;5.53;;;10.30;99.90;;;;;;2017361;29;20393;-82
2023/05/06 02:35:40;;;;;;;35.03;7.30;;;10.30;99.90;;;;;;2024943;29;20237;-83
2023/05/06 02:36:41;;;;;;;105.73;9.83;;;10.40;99.90;;;;;;2018043;29;20266;-83
2023/05/06 02:37:41;;;;;;;158.63;14.63;;;10.40;99.90;;;;;;2019089;29;20269;-82
2023/05/06 02:38:42;;;;;;;69.10;10.10;;;10.40;99.90;;;;;;2019377;29;20640;-83
2023/05/06 02:39:43;;;;;;;22.83;6.13;;;10.40;99.90;;;;;;2023655;29;20241;-83
2023/05/06 02:40:43;;;;;;;10.33;4.10;;;10.40;99.90;;;;;;2015135;29;20373;-81
2023/05/06 02:41:44;;;;;;;12.73;4.97;;;11.30;99.90;;;;;;2015320;29;20646;-82
2023/05/06 02:42:45;;;;;;;10.90;4.20;;;10.90;99.90;;;;;;2015154;29;20250;-83
2023/05/06 02:43:45;;;;;;;32.53;6.50;;;10.50;99.90;;;;;;2007597;29;20343;-81
2023/05/06 02:44:46;;;;;;;36.03;6.90;;;10.40;99.90;;;;;;2007665;29;20241;-82
2023/05/06 02:45:47;;;;;;;67.40;10.20;;;10.30;99.90;;;;;;2007675;29;20230;-82
2023/05/06 02:46:48;;;;;;;129.67;12.27;;;10.20;99.90;;;;;;2024472;29;20234;-83
2023/05/06 02:47:48;;;;;;;70.57;8.37;;;10.20;99.90;;;;;;2030316;29;20717;-82
2023/05/06 02:48:49;;;;;;;104.27;15.47;;;11.70;99.90;;;;;;2030863;29;20241;-83
2023/05/06 02:49:50;;;;;;;141.23;11.57;;;10.30;99.90;;;;;;2030236;29;20233;-82
2023/05/06 02:50:51;;;;;;;147.70;13.93;;;11.70;99.90;;;;;;2023150;29;20320;-83
2023/05/06 02:51:51;;;;;;;89.90;10.98;;;10.20;99.90;;;;;;2019271;29;20233;-83
2023/05/06 02:52:52;;;;;;;32.37;6.00;;;10.30;99.90;;;;;;2018156;29;20241;-83
2023/05/06 02:53:53;;;;;;;21.83;4.97;;;10.40;99.90;;;;;;2015148;29;20230;-82
2023/05/06 02:54:53;;;;;;;58.17;8.23;;;10.50;99.90;;;;;;2015225;29;20234;-83
2023/05/06 02:55:54;;;;;;;123.63;10.33;;;10.60;99.90;;;;;;2011250;29;20298;-83
2023/05/06 02:56:55;;;;;;;270.43;22.20;;;10.60;99.90;;;;;;2003361;29;20235;-83
2023/05/06 02:57:55;;;;;;;44.13;7.37;;;10.50;99.90;;;;;;2023441;29;20340;-83
2023/05/06 02:58:56;;;;;;;63.97;9.10;;;10.50;99.90;;;;;;2026480;29;20703;-82
2023/05/06 02:59:57;;;;;;;141.03;12.70;;;10.50;99.90;;;;;;2019005;29;20225;-83
2023/05/06 03:00:57;;;;;;;105.23;11.20;;;10.60;99.90;;;;;;2018294;29;20238;-82
2023/05/06 03:01:58;;;;;;;65.20;7.60;;;10.60;99.90;;;;;;2010042;29;21007;-83
2023/05/06 03:02:59;;;;;;;40.57;6.33;;;10.60;99.90;;;;;;2007118;29;20234;-83
2023/05/06 03:04:00;;;;;;;45.00;5.95;;;10.60;99.90;;;;;;2007351;29;20219;-81
2023/05/06 03:05:03;;;;;;;68.10;8.07;;;10.60;99.90;;;;;;2021168;29;20262;-83
2023/05/06 03:06:04;;;;;;;53.15;7.80;;;10.60;99.90;;;;;;2022525;29;20336;-82
2023/05/06 03:07:05;;;;;;;67.57;8.83;;;10.70;99.90;;;;;;2014944;29;20245;-83
2023/05/06 03:08:05;;;;;;;11.67;4.17;;;10.70;99.90;;;;;;2023024;29;20523;-82
2023/05/06 03:09:07;;;;;;;56.87;7.33;;;10.80;99.90;;;;;;2018995;29;20205;-81
2023/05/06 03:10:08;;;;;;;65.65;7.10;;;10.70;99.90;;;;;;2026419;29;20198;-83
2023/05/06 03:11:09;;;;;;;40.13;6.68;;;10.60;99.90;;;;;;2022537;29;20197;-82
2023/05/06 03:12:10;;;;;;;75.07;7.57;;;10.60;99.90;;;;;;2027342;29;20220;-83
2023/05/06 03:13:11;;;;;;;75.85;8.65;;;10.60;99.90;;;;;;2025630;29;20730;-82
2023/05/06 03:14:12;;;;;;;211.97;16.43;;;10.60;99.90;;;;;;2017192;29;20198;-82
2023/05/06 03:15:12;;;;;;;93.17;8.33;;;10.50;99.90;;;;;;2017486;29;20736;-80
2023/05/06 03:16:13;;;;;;;86.50;9.57;;;10.50;99.90;;;;;;2016729;29;20222;-81
2023/05/06 03:17:14;;;;;;;108.87;11.63;;;10.50;99.90;;;;;;2020516;29;20209;-81
2023/05/06 03:18:15;;;;;;;62.57;6.83;;;10.50;99.90;;;;;;2025088;29;20194;-81
2023/05/06 03:19:15;;;;;;;130.30;11.33;;;11.30;99.90;;;;;;2013788;29;20566;-81
2023/05/06 03:20:16;;;;;;;97.20;13.17;;;10.50;99.90;;;;;;2016983;29;20194;-81
2023/05/06 03:21:17;;;;;;;32.63;5.60;;;10.40;99.90;;;;;;2017472;29;20194;-81
2023/05/06 03:22:17;;;;;;;35.43;5.70;;;10.40;99.90;;;;;;2006596;29;20191;-82
2023/05/06 03:23:18;;;;;;;60.47;6.70;;;10.30;99.90;;;;;;2010668;29;20202;-82
2023/05/06 03:24:19;;;;;;;47.63;6.20;;;10.30;99.90;;;;;;2029421;29;20197;-81
2023/05/06 03:25:20;;;;;;;56.27;7.30;;;10.20;99.90;;;;;;2022533;29;20228;-83
2023/05/06 03:26:21;;;;;;;46.78;5.72;;;10.10;99.90;;;;;;2021818;29;20234;-83
2023/05/06 03:27:22;;;;;;;89.30;9.50;;;10.10;99.90;;;;;;2018024;29;20230;-82
2023/05/06 03:28:22;;;;;;;103.00;10.23;;;10.10;99.90;;;;;;2010817;29;20231;-82
2023/05/06 03:29:23;;;;;;;55.27;5.77;;;10.60;99.90;;;;;;2011326;29;20226;-83
2023/05/06 03:30:24;;;;;;;103.30;10.07;;;10.10;99.90;;;;;;2011119;29;20230;-83
2023/05/06 03:31:25;;;;;;;48.63;6.57;;;10.20;99.90;;;;;;2017959;29;20277;-81
2023/05/06 03:32:25;;;;;;;60.67;8.10;;;10.20;99.90;;;;;;2014186;29;20775;-83
2023/05/06 03:33:26;;;;;;;19.80;5.40;;;10.30;99.90;;;;;;2006845;29;20233;-82
2023/05/06 03:34:27;;;;;;;33.03;6.20;;;10.20;99.90;;;;;;2010622;29;20799;-81
2023/05/06 03:35:28;;;;;;;68.43;9.63;;;10.30;99.90;;;;;;2022050;29;20722;-83
2023/05/06 03:36:30;;;;;;;79.93;8.70;;;10.40;99.90;;;;;;2013923;29;20325;-81
2023/05/06 03:37:31;;;;;;;54.75;7.80;;;11.10;99.90;;;;;;2015052;29;20226;-82
2023/05/06 03:38:33;;;;;;;44.35;6.82;;;10.40;99.90;;;;;;2022423;29;20262;-82
2023/05/06 03:39:34;;;;;;;54.95;9.95;;;12.10;99.90;;;;;;2014464;29;20301;-83
2023/05/06 03:40:35;;;;;;;23.63;3.67;;;10.70;99.90;;;;;;2014021;29;20282;-83
2023/05/06 03:41:36;;;;;;;41.73;6.10;;;10.50;99.90;;;;;;2014114;29;20324;-83
2023/05/06 03:42:36;;;;;;;37.37;5.57;;;10.50;99.90;;;;;;2022149;29;20233;-83
2023/05/06 03:43:37;;;;;;;14.83;5.17;;;10.50;99.90;;;;;;2022203;29;20236;-82
2023/05/06 03:44:38;;;;;;;32.63;5.70;;;11.50;99.90;;;;;;2018167;29;20654;-82
2023/05/06 03:45:38;;;;;;;12.53;3.80;;;10.40;99.90;;;;;;2018480;29;20310;-82
2023/05/06 03:46:40;;;;;;;38.27;6.20;;;10.50;99.90;;;;;;2014256;29;20249;-83
2023/05/06 03:47:41;;;;;;;29.08;5.00;;;10.50;99.90;;;;;;2029789;29;20931;-83
2023/05/06 03:48:41;;;;;;;40.63;6.10;;;10.50;99.90;;;;;;2013867;29;20313;-83
2023/05/06 03:49:43;;;;;;;34.23;5.90;;;11.40;99.90;;;;;;2010477;29;20712;-82
2023/05/06 03:50:44;;;;;;;45.20;6.93;;;10.40;99.90;;;;;;2026912;29;20229;-83
2023/05/06 03:51:45;;;;;;;120.13;12.77;;;10.40;99.90;;;;;;2025768;29;20229;-83
2023/05/06 03:52:46;;;;;;;95.57;12.13;;;10.80;99.90;;;;;;2025952;29;20270;-83
2023/05/06 03:53:47;;;;;;;43.37;7.17;;;10.40;99.90;;;;;;2023103;29;20230;-80
2023/05/06 03:54:48;;;;;;;47.03;7.43;;;10.40;99.90;;;;;;2035126;29;20241;-81
2023/05/06 03:55:49;;;;;;;89.38;9.18;;;11.90;99.90;;;;;;2026929;29;20241;-80
2023/05/06 03:56:49;;;;;;;130.83;10.80;;;10.40;99.90;;;;;;2019113;29;20241;-80
2023/05/06 03:57:50;;;;;;;224.07;18.27;;;10.40;99.90;;;;;;2025553;29;20277;-80
2023/05/06 03:58:52;;;;;;;121.00;10.70;;;10.30;99.90;;;;;;2018815;29;20268;-81
2023/05/06 03:59:53;;;;;;;41.35;7.63;;;10.40;99.90;;;;;;2021507;29;20293;-78
2023/05/06 04:00:54;;;;;;;73.37;11.10;;;9.00;99.90;;;;;;2032961;29;20218;-82
2023/05/06 04:01:55;;;;;;;35.90;7.73;;;10.50;99.90;;;;;;2027373;29;20210;-82
2023/05/06 04:02:55;;;;;;;87.30;10.80;;;10.50;99.90;;;;;;2027502;29;20730;-82
2023/05/06 04:03:56;;;;;;;30.23;5.80;;;10.60;99.90;;;;;;2019417;29;20335;-82
2023/05/06 04:04:57;;;;;;;25.90;4.20;;;10.60;99.90;;;;;;2022962;29;20312;-83
2023/05/06 04:05:57;;;;;;;38.97;4.53;;;10.50;99.90;;;;;;2022524;29;20242;-82
2023/05/06 04:06:58;;;;;;;57.37;5.43;;;10.60;99.90;;;;;;2007509;29;20268;-83
2023/05/06 04:07:59;;;;;;;44.27;5.13;;;10.50;99.90;;;;;;2010223;29;20242;-82
2023/05/06 04:08:59;;;;;;;44.50;6.00;;;10.50;99.90;;;;;;2016363;29;20237;-83
2023/05/06 04:10:00;;;;;;;19.70;4.80;;;10.40;99.90;;;;;;2019041;29;20670;-82
2023/05/06 04:11:05;;;;;;;80.13;7.97;;;10.40;99.90;;;;;;2018929;29;20261;-82
2023/05/06 04:12:06;;;;;;;11.68;3.63;;;10.50;99.90;;;;;;2018360;29;20198;-83
2023/05/06 04:13:07;;;;;;;33.53;6.37;;;10.50;99.90;;;;;;2010557;29;20195;-83
2023/05/06 04:14:08;;;;;;;81.60;7.43;;;11.60;99.90;;;;;;2018424;29;20191;-82
2023/05/06 04:15:09;;;;;;;37.53;7.33;;;10.40;99.90;;;;;;2018467;29;20194;-83
2023/05/06 04:16:11;;;;;;;35.20;6.47;;;10.50;99.90;;;;;;2025500;29;20292;-80
2023/05/06 04:17:12;;;;;;;41.22;8.05;;;10.60;99.90;;;;;;2025509;29;20212;-81
2023/05/06 04:18:17;;;;;;;13.70;4.43;;;10.50;99.90;;;;;;2026519;29;20217;-83
2023/05/06 04:19:19;;;;;;;16.48;4.35;;;10.50;99.90;;;;;;2022570;29;20261;-83
2023/05/06 04:20:19;;;;;;;33.47;6.38;;;10.50;99.90;;;;;;2014999;29;20565;-82
2023/05/06 04:21:20;;;;;;;15.77;3.83;;;10.50;99.90;;;;;;2015252;29;20231;-83
2023/05/06 04:22:21;;;;;;;21.27;5.23;;;11.40;99.90;;;;;;2014511;29;20670;-83
2023/05/06 04:23:22;;;;;;;15.20;5.77;;;10.60;99.90;;;;;;2014540;29;20242;-82
2023/05/06 04:24:22;;;;;;;8.00;4.30;;;10.50;99.90;;;;;;2025936;29;20684;-82
2023/05/06 04:25:23;;;;;;;8.93;4.10;;;10.60;99.90;;;;;;2026322;29;20229;-82
2023/05/06 04:26:24;;;;;;;14.57;4.73;;;10.50;99.90;;;;;;2025530;29;20301;-80
2023/05/06 04:27:26;;;;;;;9.83;4.27;;;10.50;99.90;;;;;;2025667;29;20321;-82
2023/05/06 04:28:27;;;;;;;6.82;3.50;;;10.50;99.90;;;;;;2018088;29;20238;-82
2023/05/06 04:29:27;;;;;;;4.73;2.90;;;10.40;99.90;;;;;;2017803;29;20242;-82
2023/05/06 04:30:28;;;;;;;4.70;3.53;;;10.40;99.90;;;;;;2017274;29;20249;-82
2023/05/06 04:31:29;;;;;;;3.53;2.85;;;11.60;99.90;;;;;;2025647;29;20241;-83
2023/05/06 04:32:30;;;;;;;3.57;3.00;;;10.40;99.90;;;;;;2029884;29;20256;-80
2023/05/06 04:33:31;;;;;;;4.57;3.17;;;10.30;99.90;;;;;;2009369;29;20235;-82
2023/05/06 04:34:35;;;;;;;4.03;3.20;;;10.40;99.90;;;;;;2015796;29;20241;-82
2023/05/06 04:35:35;;;;;;;4.53;3.50;;;10.40;99.90;;;;;;2025652;29;20480;-84
2023/05/06 04:36:36;;;;;;;4.17;3.40;;;10.40;99.90;;;;;;2013975;29;20223;-82
2023/05/06 04:37:37;;;;;;;3.80;3.03;;;10.30;99.90;;;;;;2010197;29;20238;-84
2023/05/06 04:38:37;;;;;;;2.57;2.33;;;10.30;99.90;;;;;;2009653;29;20231;-82
2023/05/06 04:39:38;;;;;;;3.13;2.70;;;10.20;99.90;;;;;;2009777;29;20317;-80
2023/05/06 04:40:39;;;;;;;3.40;2.90;;;10.20;99.90;;;;;;2009600;29;20235;-82
2023/05/06 04:41:40;;;;;;;3.67;2.97;;;10.30;99.90;;;;;;2017220;29;20464;-82
2023/05/06 04:42:41;;;;;;;3.28;2.88;;;11.20;99.90;;;;;;2013756;29;20604;-82
2023/05/06 04:43:42;;;;;;;3.30;2.75;;;10.30;99.90;;;;;;2009526;29;20227;-83
2023/05/06 04:44:43;;;;;;;3.00;2.70;;;10.30;99.90;;;;;;2017293;29;20230;-82
2023/05/06 04:45:50;;;;;;;2.73;2.50;;;10.20;99.90;;;;;;2009080;29;20333;-82
2023/05/06 04:46:51;;;;;;;3.63;2.45;;;10.20;99.90;;;;;;2014284;29;20291;-81
2023/05/06 04:47:52;;;;;;;2.93;2.60;;;10.20;99.90;;;;;;2019997;29;20230;-81
2023/05/06 04:48:52;;;;;;;3.50;2.92;;;10.30;99.90;;;;;;2017360;29;21022;-81
2023/05/06 04:49:53;;;;;;;3.30;2.83;;;10.30;99.90;;;;;;2017792;29;20264;-82
2023/05/06 04:50:54;;;;;;;2.60;2.40;;;10.40;99.90;;;;;;2025658;29;20237;-81
2023/05/06 04:51:55;;;;;;;3.53;3.20;;;10.40;99.90;;;;;;2017940;29;20284;-82
2023/05/06 04:52:56;;;;;;;2.63;2.30;;;10.40;99.90;;;;;;2025448;29;20236;-81
2023/05/06 04:53:57;;;;;;;2.70;2.50;;;10.50;99.90;;;;;;2021805;29;20253;-80
2023/05/06 04:54:57;;;;;;;3.30;2.70;;;10.40;99.90;;;;;;2022003;29;20265;-82
2023/05/06 04:55:58;;;;;;;4.20;3.07;;;10.50;99.90;;;;;;2006415;29;20326;-81
2023/05/06 04:56:59;;;;;;;25.30;5.40;;;10.50;99.90;;;;;;2006398;29;20263;-81
2023/05/06 04:58:00;;;;;;;113.65;9.77;;;10.50;99.90;;;;;;2006654;29;20239;-81
2023/05/06 04:59:01;;;;;;;72.13;7.70;;;10.50;99.90;;;;;;2005113;29;20227;-81
2023/05/06 05:00:02;;;;;;;39.93;5.60;;;10.50;99.90;;;;;;2022235;29;20189;-82
2023/05/06 05:01:07;;;;;;;58.05;6.63;;;10.40;99.90;;;;;;2025172;29;20894;-81
2023/05/06 05:02:07;;;;;;;68.25;7.13;;;10.30;99.90;;;;;;2025312;29;20221;-82
2023/05/06 05:03:08;;;;;;;45.50;6.17;;;10.20;99.90;;;;;;2018358;29;20191;-82
2023/05/06 05:04:09;;;;;;;28.97;5.03;;;10.20;99.90;;;;;;2014306;29;20221;-80
2023/05/06 05:05:10;;;;;;;57.77;5.57;;;10.20;99.90;;;;;;2006123;29;20198;-81
2023/05/06 05:06:12;;;;;;;28.97;5.20;;;10.20;99.90;;;;;;2006443;29;20199;-82
2023/05/06 05:07:13;;;;;;;67.95;6.82;;;10.30;99.90;;;;;;2013975;29;20217;-80
2023/05/06 05:08:13;;;;;;;49.90;7.43;;;10.40;99.90;;;;;;2014028;29;20770;-83
2023/05/06 05:09:14;;;;;;;25.67;5.60;;;10.40;99.90;;;;;;2009660;29;20199;-81
2023/05/06 05:10:15;;;;;;;67.77;9.77;;;10.50;99.90;;;;;;2007063;29;20198;-81
2023/05/06 05:11:15;;;;;;;21.60;4.40;;;10.80;99.90;;;;;;2014580;29;20202;-80
2023/05/06 05:12:16;;;;;;;54.80;6.43;;;10.60;99.90;;;;;;2014187;29;20195;-82
2023/05/06 05:13:18;;;;;;;100.33;8.37;;;10.60;99.90;;;;;;2004263;29;20179;-82
2023/05/06 05:14:18;;;;;;;24.30;4.05;;;10.70;99.90;;;;;;2017319;29;20277;-81
2023/05/06 05:15:20;;;;;;;15.43;3.57;;;10.80;99.90;;;;;;2017865;29;20621;-82
2023/05/06 05:16:20;;;;;;;23.63;4.10;;;10.80;99.90;;;;;;2024377;29;22441;-82
2023/05/06 05:17:21;;;;;;;28.80;3.80;;;10.80;99.90;;;;;;2013015;29;20316;-80
2023/05/06 05:18:22;;;;;;;28.97;4.60;;;11.20;99.90;;;;;;2006592;29;20821;-81
2023/05/06 05:19:22;;;;;;;22.17;3.97;;;10.90;99.90;;;;;;2017491;29;20254;-81
2023/05/06 05:20:23;;;;;;;30.00;4.00;;;11.00;99.90;;;;;;2025351;29;20927;-81